Time;durP1;ratioP1;P1;durP2;ratioP2;P2;SDS_P1;SDS_P2;PMS_P1;PMS_P2;Temp;Humidity;BMP_temperature;BMP_pressure;BME280_temperature;BME280_humidity;BME280_pressure;Samples;Min_cycle;Max_cycle;Signal;HPM_P1;HPM_P2
2021/08/07 00:00:08;;;;;;;7.43;3.28;;;16.60;99.90;;;;;;5052093;28;20021;-50
2021/08/07 00:02:34;;;;;;;5.03;3.60;;;16.60;99.90;;;;;;5051884;28;20036;-47
2021/08/07 00:04:59;;;;;;;3.97;3.40;;;16.60;99.90;;;;;;5051291;28;20033;-46
2021/08/07 00:07:27;;;;;;;6.85;4.75;;;16.60;99.90;;;;;;5052092;28;20028;-50
2021/08/07 00:09:56;;;;;;;11.43;3.80;;;16.60;99.90;;;;;;5052134;28;20203;-47
2021/08/07 00:12:21;;;;;;;7.30;3.05;;;16.50;99.90;;;;;;5051672;28;20039;-47
2021/08/07 00:14:47;;;;;;;5.38;3.53;;;16.40;99.90;;;;;;5051369;28;20029;-47
2021/08/07 00:17:12;;;;;;;6.88;3.70;;;16.50;99.90;;;;;;5052054;28;20378;-47
2021/08/07 00:19:38;;;;;;;4.38;3.17;;;16.40;99.90;;;;;;5051488;28;20025;-46
2021/08/07 00:22:04;;;;;;;4.65;3.08;;;16.40;99.90;;;;;;5051481;28;20017;-46
2021/08/07 00:24:30;;;;;;;4.40;3.20;;;16.30;99.90;;;;;;5050692;28;20025;-47
2021/08/07 00:26:56;;;;;;;3.33;3.00;;;16.30;99.90;;;;;;5051487;28;20544;-47
2021/08/07 00:29:21;;;;;;;6.32;3.25;;;16.30;99.90;;;;;;5051831;28;20147;-46
2021/08/07 00:31:47;;;;;;;3.88;3.00;;;16.20;99.90;;;;;;5050141;28;20029;-47
2021/08/07 00:34:12;;;;;;;3.70;3.17;;;16.20;99.90;;;;;;5050769;28;20367;-46
2021/08/07 00:36:38;;;;;;;6.53;3.67;;;16.20;99.90;;;;;;5051118;28;20091;-46
2021/08/07 00:39:04;;;;;;;6.72;3.42;;;16.10;99.90;;;;;;5051204;28;20374;-46
2021/08/07 00:41:29;;;;;;;4.80;2.85;;;16.10;99.90;;;;;;5051348;28;20024;-46
2021/08/07 00:43:55;;;;;;;4.55;3.20;;;16.10;99.90;;;;;;5050538;28;20060;-49
2021/08/07 00:46:20;;;;;;;5.75;2.72;;;16.10;99.90;;;;;;5051129;28;20113;-49
2021/08/07 00:48:46;;;;;;;6.10;3.30;;;16.10;99.90;;;;;;5050952;28;20116;-46
2021/08/07 00:51:11;;;;;;;5.43;3.13;;;16.10;99.90;;;;;;5050951;28;20399;-46
2021/08/07 00:53:37;;;;;;;6.55;3.20;;;16.10;99.90;;;;;;5050338;28;20083;-46
2021/08/07 00:56:03;;;;;;;8.50;3.60;;;16.10;99.90;;;;;;5051047;28;20447;-46
2021/08/07 00:58:29;;;;;;;6.90;3.53;;;16.10;99.90;;;;;;5049388;28;20068;-45
2021/08/07 01:00:55;;;;;;;6.93;3.50;;;16.10;99.90;;;;;;5050766;28;20049;-46
2021/08/07 01:03:34;;;;;;;6.38;3.03;;;16.10;99.90;;;;;;5050241;28;20086;-46
2021/08/07 01:06:15;;;;;;;7.00;3.50;;;16.10;99.90;;;;;;5050759;28;20100;-46
2021/08/07 01:08:55;;;;;;;8.02;3.20;;;16.10;99.90;;;;;;5050079;28;20017;-47
2021/08/07 01:11:56;;;;;;;3.30;2.83;;;16.10;99.90;;;;;;5049541;28;20612;-46
2021/08/07 01:14:29;;;;;;;4.47;2.97;;;16.10;99.90;;;;;;4988456;28;20038;-47
2021/08/07 01:16:55;;;;;;;3.40;2.88;;;16.10;99.90;;;;;;5040927;28;20506;-46
2021/08/07 01:19:24;;;;;;;4.47;3.10;;;16.10;99.90;;;;;;5050454;28;20044;-46
2021/08/07 01:21:56;;;;;;;4.65;2.72;;;16.10;99.90;;;;;;5050311;28;20025;-47
2021/08/07 01:24:28;;;;;;;4.65;3.35;;;16.10;99.90;;;;;;5049625;28;20024;-46
2021/08/07 01:27:06;;;;;;;9.88;3.22;;;16.10;99.90;;;;;;5050307;28;20032;-48
2021/08/07 01:29:33;;;;;;;6.20;3.13;;;16.10;99.90;;;;;;5050279;28;20086;-46
2021/08/07 01:31:59;;;;;;;4.10;2.92;;;16.10;99.90;;;;;;5050275;28;20396;-47
2021/08/07 01:34:25;;;;;;;5.13;2.78;;;16.10;99.90;;;;;;5049590;28;20027;-48
2021/08/07 01:36:50;;;;;;;4.00;3.03;;;16.10;99.90;;;;;;5050154;28;20025;-52
2021/08/07 01:39:16;;;;;;;6.05;2.78;;;16.00;99.90;;;;;;5049959;28;20033;-46
2021/08/07 01:41:41;;;;;;;3.67;2.85;;;16.00;99.90;;;;;;5050055;28;20387;-46
2021/08/07 01:44:07;;;;;;;7.32;3.05;;;16.00;99.90;;;;;;5049423;28;20032;-46
2021/08/07 01:46:43;;;;;;;3.35;2.70;;;16.00;99.90;;;;;;5050023;28;20479;-45
2021/08/07 01:49:13;;;;;;;4.57;3.13;;;16.00;99.90;;;;;;5049857;28;20029;-47
2021/08/07 01:51:45;;;;;;;7.13;3.70;;;16.00;99.90;;;;;;5049758;28;20025;-46
2021/08/07 01:54:13;;;;;;;4.30;3.25;;;16.00;99.90;;;;;;5049218;28;20259;-46
2021/08/07 01:56:44;;;;;;;5.20;3.28;;;16.00;99.90;;;;;;5049815;28;20063;-46
2021/08/07 01:59:14;;;;;;;4.03;3.08;;;16.00;99.90;;;;;;5049588;28;20029;-47
2021/08/07 02:01:40;;;;;;;7.28;3.50;;;16.00;99.90;;;;;;5049701;28;20032;-46
2021/08/07 02:04:07;;;;;;;6.47;2.78;;;16.10;99.90;;;;;;5047559;28;20574;-45
2021/08/07 02:06:34;;;;;;;4.15;3.10;;;16.10;99.90;;;;;;5049631;28;20029;-46
2021/08/07 02:09:01;;;;;;;4.68;2.85;;;16.00;99.90;;;;;;5049711;28;20021;-46
2021/08/07 02:11:27;;;;;;;4.68;2.92;;;16.00;99.90;;;;;;5047981;28;20061;-46
2021/08/07 02:13:55;;;;;;;6.28;3.28;;;16.00;99.90;;;;;;5048869;28;20029;-45
2021/08/07 02:16:21;;;;;;;4.53;3.03;;;16.00;99.90;;;;;;5049584;28;20466;-48
2021/08/07 02:18:47;;;;;;;4.95;3.15;;;16.00;99.90;;;;;;5049387;28;20335;-46
2021/08/07 02:21:16;;;;;;;5.13;3.75;;;16.00;99.90;;;;;;5048342;28;20025;-46
2021/08/07 02:23:42;;;;;;;6.38;3.33;;;16.00;99.90;;;;;;5048902;28;20029;-49
2021/08/07 02:26:09;;;;;;;4.25;3.08;;;16.00;99.90;;;;;;5049350;28;20021;-45
2021/08/07 02:28:35;;;;;;;5.55;2.90;;;16.00;99.90;;;;;;5049412;28;20398;-47
2021/08/07 02:31:02;;;;;;;10.98;3.10;;;16.00;99.90;;;;;;5049057;28;20542;-46
2021/08/07 02:33:28;;;;;;;3.20;2.90;;;15.90;99.90;;;;;;5048287;28;20036;-46
2021/08/07 02:35:57;;;;;;;6.45;2.70;;;15.80;99.90;;;;;;5049107;28;20033;-48
2021/08/07 02:38:23;;;;;;;6.20;3.08;;;15.80;99.90;;;;;;5049573;28;20064;-47
2021/08/07 02:40:49;;;;;;;6.05;3.50;;;15.80;99.90;;;;;;5048872;28;20118;-45
2021/08/07 02:43:16;;;;;;;5.35;3.15;;;15.70;99.90;;;;;;5048794;28;20025;-47
2021/08/07 02:45:42;;;;;;;7.32;3.20;;;15.70;99.90;;;;;;5047286;28;20459;-51
2021/08/07 02:48:09;;;;;;;5.30;3.42;;;15.70;99.90;;;;;;5049086;28;20094;-48
2021/08/07 02:50:36;;;;;;;6.22;3.22;;;15.60;99.90;;;;;;5048733;28;20037;-46
2021/08/07 02:53:02;;;;;;;7.15;2.92;;;15.60;99.90;;;;;;5048953;28;20352;-47
2021/08/07 02:55:28;;;;;;;9.93;2.65;;;15.60;99.90;;;;;;5046775;28;20295;-46
2021/08/07 02:57:55;;;;;;;3.33;2.70;;;15.50;99.90;;;;;;5047165;28;20079;-47
2021/08/07 03:00:20;;;;;;;8.43;2.95;;;15.50;99.90;;;;;;5048492;28;20438;-46
2021/08/07 03:02:46;;;;;;;6.50;3.60;;;15.40;99.90;;;;;;5047392;28;20021;-46
2021/08/07 03:05:12;;;;;;;5.90;3.58;;;15.30;99.90;;;;;;5047800;28;20017;-45
2021/08/07 03:07:38;;;;;;;4.07;3.30;;;15.30;99.90;;;;;;5048473;28;20020;-46
2021/08/07 03:10:08;;;;;;;9.23;3.22;;;15.30;99.90;;;;;;5047204;28;20074;-46
2021/08/07 03:12:36;;;;;;;9.48;3.22;;;15.30;99.90;;;;;;5046946;28;20040;-46
2021/08/07 03:15:04;;;;;;;7.85;3.53;;;15.30;99.90;;;;;;5047636;28;20075;-46
2021/08/07 03:17:29;;;;;;;4.20;3.42;;;15.20;99.90;;;;;;5048415;28;20259;-49
2021/08/07 03:19:55;;;;;;;4.63;3.03;;;15.30;99.90;;;;;;5048242;28;20498;-46
2021/08/07 03:22:20;;;;;;;7.72;3.10;;;15.30;99.90;;;;;;5046989;28;20025;-46
2021/08/07 03:24:46;;;;;;;7.55;3.38;;;15.30;99.90;;;;;;5047564;28;20032;-45
2021/08/07 03:27:12;;;;;;;5.25;2.78;;;15.30;99.90;;;;;;5048150;28;20045;-49
2021/08/07 03:29:38;;;;;;;4.53;3.03;;;15.30;99.90;;;;;;5048049;28;20075;-46
2021/08/07 03:32:04;;;;;;;5.35;3.45;;;15.30;99.90;;;;;;5048023;28;20463;-46
2021/08/07 03:34:29;;;;;;;6.38;2.97;;;15.30;99.90;;;;;;5047519;28;20513;-46
2021/08/07 03:36:55;;;;;;;5.60;2.95;;;15.30;99.90;;;;;;5046711;28;20029;-48
2021/08/07 03:39:21;;;;;;;6.10;3.20;;;15.30;99.90;;;;;;5048077;28;20025;-47
2021/08/07 03:41:48;;;;;;;11.05;3.42;;;15.30;99.90;;;;;;5047967;28;20032;-46
2021/08/07 03:44:14;;;;;;;6.43;3.05;;;15.30;99.90;;;;;;5047335;28;20053;-46
2021/08/07 03:46:40;;;;;;;4.43;3.50;;;15.30;99.90;;;;;;5048043;28;20060;-45
2021/08/07 03:49:05;;;;;;;5.55;3.10;;;15.30;99.90;;;;;;5048011;28;20486;-46
2021/08/07 03:51:31;;;;;;;5.70;2.97;;;15.30;99.90;;;;;;5047966;28;20164;-46
2021/08/07 03:53:56;;;;;;;3.55;2.88;;;15.30;99.90;;;;;;5047362;28;20025;-48
2021/08/07 03:56:22;;;;;;;6.05;3.38;;;15.30;99.90;;;;;;5048332;28;20028;-47
2021/08/07 03:58:48;;;;;;;8.23;3.30;;;15.30;99.90;;;;;;5046690;28;20059;-48
2021/08/07 04:01:13;;;;;;;5.00;3.00;;;15.30;99.90;;;;;;5047908;28;20033;-45
2021/08/07 04:03:39;;;;;;;4.22;2.92;;;15.30;99.90;;;;;;5047473;28;20025;-46
2021/08/07 04:06:04;;;;;;;6.75;3.15;;;15.30;99.90;;;;;;5048125;28;20049;-46
2021/08/07 04:08:30;;;;;;;5.05;2.90;;;15.30;99.90;;;;;;5048272;28;20081;-46
2021/08/07 04:10:55;;;;;;;6.45;2.92;;;15.40;99.90;;;;;;5048149;28;20021;-46
2021/08/07 04:13:21;;;;;;;4.65;3.30;;;15.40;99.90;;;;;;5047288;28;20116;-46
2021/08/07 04:15:46;;;;;;;4.80;3.08;;;15.50;99.90;;;;;;5048073;28;20295;-46
2021/08/07 04:18:12;;;;;;;3.95;2.80;;;15.50;99.90;;;;;;5047994;28;20040;-49
2021/08/07 04:20:38;;;;;;;5.35;2.70;;;15.50;99.90;;;;;;5047984;28;20406;-45
2021/08/07 04:23:03;;;;;;;7.18;3.40;;;15.60;99.90;;;;;;5047773;28;20053;-46
2021/08/07 04:25:29;;;;;;;11.05;3.90;;;15.60;99.90;;;;;;5047203;28;20045;-46
2021/08/07 04:27:55;;;;;;;7.50;3.90;;;15.70;99.90;;;;;;5047539;28;20470;-46
2021/08/07 04:30:20;;;;;;;10.52;4.32;;;15.70;99.90;;;;;;5047712;28;20044;-46
2021/08/07 04:32:46;;;;;;;9.48;3.78;;;15.80;99.90;;;;;;5047678;28;20021;-49
2021/08/07 04:35:11;;;;;;;10.55;4.43;;;15.90;99.90;;;;;;5047104;28;20029;-46
2021/08/07 04:37:48;;;;;;;8.30;3.75;;;15.90;99.90;;;;;;5046234;28;20065;-45
2021/08/07 04:40:15;;;;;;;6.70;3.78;;;16.00;99.90;;;;;;5047599;28;20024;-45
2021/08/07 04:42:40;;;;;;;8.20;3.13;;;16.00;99.90;;;;;;5047541;28;20109;-49
2021/08/07 04:45:06;;;;;;;5.15;2.88;;;16.00;99.90;;;;;;5049963;28;20100;-46
2021/08/07 04:47:32;;;;;;;7.85;2.20;;;16.00;99.90;;;;;;5051260;28;20049;-47
2021/08/07 04:49:57;;;;;;;2.75;2.17;;;16.00;99.90;;;;;;5051513;28;20669;-46
2021/08/07 04:52:23;;;;;;;8.13;2.30;;;16.10;99.90;;;;;;5051400;28;20033;-46
2021/08/07 04:54:48;;;;;;;5.32;2.00;;;16.10;99.90;;;;;;5050561;28;20040;-47
2021/08/07 04:57:14;;;;;;;3.25;2.08;;;16.10;99.90;;;;;;5049991;28;20021;-46
2021/08/07 04:59:39;;;;;;;2.55;2.30;;;16.10;99.90;;;;;;5051370;28;20128;-46
2021/08/07 05:02:05;;;;;;;5.55;2.30;;;16.20;99.90;;;;;;5051285;28;20033;-46
2021/08/07 05:04:30;;;;;;;3.83;2.47;;;16.20;99.90;;;;;;5050437;28;20052;-46
2021/08/07 05:06:56;;;;;;;5.20;2.42;;;16.30;99.90;;;;;;5050964;28;20025;-45
2021/08/07 05:09:21;;;;;;;3.25;2.28;;;16.30;99.90;;;;;;5050880;28;20123;-45
2021/08/07 05:11:47;;;;;;;4.85;2.60;;;16.40;99.90;;;;;;5050774;28;20059;-45
2021/08/07 05:14:12;;;;;;;4.22;2.00;;;16.50;99.90;;;;;;5050348;28;20474;-48
2021/08/07 05:16:38;;;;;;;9.30;2.63;;;16.50;99.90;;;;;;5050934;28;20108;-46
2021/08/07 05:19:03;;;;;;;2.97;2.00;;;16.50;99.90;;;;;;5050839;28;20097;-49
2021/08/07 05:21:29;;;;;;;3.65;2.55;;;16.50;99.90;;;;;;5050957;28;20029;-46
2021/08/07 05:23:54;;;;;;;2.85;1.80;;;16.50;99.90;;;;;;5050237;28;20033;-45
2021/08/07 05:26:19;;;;;;;3.53;2.05;;;16.50;99.90;;;;;;5050674;28;20021;-46
2021/08/07 05:28:45;;;;;;;3.47;2.15;;;16.50;99.90;;;;;;5049302;28;20032;-46
2021/08/07 05:31:11;;;;;;;5.18;2.15;;;16.60;99.90;;;;;;5050661;28;20035;-46
2021/08/07 05:33:37;;;;;;;4.47;2.05;;;16.50;99.90;;;;;;5050133;28;20494;-46
2021/08/07 05:36:03;;;;;;;4.38;2.10;;;16.50;99.90;;;;;;5050782;28;20067;-53
2021/08/07 05:38:28;;;;;;;3.50;2.00;;;16.50;99.90;;;;;;5050646;28;20039;-54
2021/08/07 05:40:54;;;;;;;5.78;2.22;;;16.60;99.90;;;;;;5050806;28;20091;-53
2021/08/07 05:43:19;;;;;;;5.10;2.00;;;16.60;99.90;;;;;;5050073;28;20021;-53
2021/08/07 05:45:45;;;;;;;6.85;2.63;;;16.70;99.90;;;;;;5050766;28;20411;-54
2021/08/07 05:48:12;;;;;;;2.53;2.05;;;16.70;99.90;;;;;;5050455;28;20029;-54
2021/08/07 05:50:37;;;;;;;2.72;1.88;;;16.70;99.90;;;;;;5050402;28;20029;-54
2021/08/07 05:53:03;;;;;;;7.47;3.10;;;16.70;99.90;;;;;;5048836;28;20037;-54
2021/08/07 05:55:28;;;;;;;4.93;1.90;;;16.80;99.90;;;;;;5049231;28;20408;-54
2021/08/07 05:57:54;;;;;;;5.85;1.80;;;16.90;99.90;;;;;;5050225;28;20029;-54
2021/08/07 06:00:19;;;;;;;4.53;2.20;;;16.90;99.90;;;;;;5050077;28;20029;-53
2021/08/07 06:02:45;;;;;;;3.30;1.98;;;16.90;99.90;;;;;;5050234;28;20040;-54
2021/08/07 06:05:10;;;;;;;2.28;1.83;;;17.00;99.90;;;;;;5049691;28;20036;-54
2021/08/07 06:07:36;;;;;;;2.88;2.17;;;17.00;99.90;;;;;;5050048;28;20024;-54
2021/08/07 06:10:02;;;;;;;3.13;1.92;;;17.10;99.90;;;;;;5049763;28;20142;-54
2021/08/07 06:12:27;;;;;;;3.13;1.92;;;17.20;99.90;;;;;;5049605;28;20041;-53
2021/08/07 06:14:53;;;;;;;6.38;1.80;;;17.30;99.90;;;;;;5048905;28;20033;-54
2021/08/07 06:17:18;;;;;;;3.80;1.70;;;17.40;99.90;;;;;;5049427;28;20021;-56
2021/08/07 06:19:44;;;;;;;4.97;2.00;;;17.40;99.90;;;;;;5059727;28;20044;-54
2021/08/07 06:22:10;;;;;;;8.43;2.13;;;17.50;99.90;;;;;;5066537;28;20379;-53
2021/08/07 06:24:35;;;;;;;2.40;1.80;;;17.60;99.90;;;;;;5068475;28;20055;-54
2021/08/07 06:27:01;;;;;;;3.00;2.10;;;17.70;99.90;;;;;;5057510;28;20028;-54
2021/08/07 06:29:26;;;;;;;4.75;2.33;;;17.80;99.90;;;;;;5068204;28;20086;-54
2021/08/07 06:31:52;;;;;;;4.93;1.83;;;17.80;99.90;;;;;;5068031;28;20033;-54
2021/08/07 06:34:17;;;;;;;2.72;2.22;;;17.90;99.90;;;;;;5066405;28;20037;-54
2021/08/07 06:36:43;;;;;;;6.28;2.50;;;17.90;99.90;;;;;;5069166;28;20039;-54
2021/08/07 06:39:08;;;;;;;4.57;2.40;;;17.90;99.90;;;;;;5057909;28;20044;-53
2021/08/07 06:41:34;;;;;;;5.15;1.95;;;18.00;99.90;;;;;;5060963;28;20028;-54
2021/08/07 06:43:59;;;;;;;4.45;2.13;;;18.10;99.90;;;;;;5062820;28;20467;-54
2021/08/07 06:46:25;;;;;;;2.22;1.85;;;18.20;99.90;;;;;;5053997;28;20032;-54
2021/08/07 06:48:50;;;;;;;5.45;1.80;;;18.20;99.90;;;;;;5056670;28;20486;-54
2021/08/07 06:51:16;;;;;;;4.18;2.20;;;18.20;99.90;;;;;;5057848;28;20028;-54
2021/08/07 06:53:41;;;;;;;3.35;1.92;;;18.20;99.90;;;;;;5057081;28;20089;-54
2021/08/07 06:56:07;;;;;;;7.20;2.17;;;18.20;99.90;;;;;;5050292;28;20052;-54
2021/08/07 06:58:33;;;;;;;3.05;2.28;;;18.20;99.90;;;;;;5070555;28;20288;-54
2021/08/07 07:00:58;;;;;;;3.17;2.22;;;18.20;99.90;;;;;;5067320;28;20029;-53
2021/08/07 07:03:23;;;;;;;4.70;2.10;;;18.20;99.90;;;;;;5076114;28;20023;-53
2021/08/07 07:05:49;;;;;;;4.10;2.20;;;18.20;99.90;;;;;;5067906;28;20495;-54
2021/08/07 07:08:15;;;;;;;4.93;2.40;;;18.20;99.90;;;;;;5073262;28;20044;-55
2021/08/07 07:10:40;;;;;;;8.00;2.30;;;18.30;99.90;;;;;;5073770;28;20474;-54
2021/08/07 07:13:06;;;;;;;3.33;1.70;;;18.40;99.90;;;;;;5065910;28;20055;-54
2021/08/07 07:15:32;;;;;;;6.10;1.50;;;18.60;99.90;;;;;;5066400;28;20035;-54
2021/08/07 07:17:58;;;;;;;2.40;1.70;;;18.70;99.90;;;;;;5070217;28;20028;-54
2021/08/07 07:20:24;;;;;;;4.60;1.50;;;18.90;99.90;;;;;;5067570;28;20023;-55
2021/08/07 07:22:50;;;;;;;2.03;1.83;;;19.10;99.90;;;;;;5073861;28;20355;-54
2021/08/07 07:25:16;;;;;;;2.22;1.73;;;19.20;99.90;;;;;;5054910;28;20027;-54
2021/08/07 07:27:43;;;;;;;2.78;1.95;;;19.20;99.90;;;;;;5075968;28;20027;-54
2021/08/07 07:30:09;;;;;;;3.90;1.70;;;19.20;99.90;;;;;;5071739;28;20038;-54
2021/08/07 07:32:35;;;;;;;2.15;1.23;;;19.40;99.90;;;;;;5080005;28;20020;-54
2021/08/07 07:35:02;;;;;;;2.00;1.73;;;19.60;99.90;;;;;;5073554;28;20126;-55
2021/08/07 07:37:29;;;;;;;4.60;1.58;;;19.60;99.90;;;;;;5069886;28;20458;-55
2021/08/07 07:39:54;;;;;;;2.63;1.90;;;19.90;99.90;;;;;;5059434;28;20035;-55
2021/08/07 07:42:20;;;;;;;2.50;1.80;;;19.80;99.90;;;;;;5069161;28;20012;-55
2021/08/07 07:44:45;;;;;;;9.02;2.25;;;19.90;99.90;;;;;;5064229;28;20108;-55
2021/08/07 07:47:11;;;;;;;1.95;1.48;;;20.00;99.90;;;;;;5057053;28;20142;-55
2021/08/07 07:49:36;;;;;;;4.50;1.80;;;20.00;99.90;;;;;;5072399;28;20047;-55
2021/08/07 07:52:02;;;;;;;2.35;1.50;;;20.10;99.90;;;;;;5068404;28;20401;-55
2021/08/07 07:54:28;;;;;;;3.67;2.15;;;20.10;99.90;;;;;;5075163;28;20024;-55
2021/08/07 07:56:53;;;;;;;5.97;1.98;;;20.30;99.90;;;;;;5068491;28;20095;-54
2021/08/07 07:59:19;;;;;;;3.25;1.77;;;20.20;99.90;;;;;;5075156;28;20050;-55
2021/08/07 08:01:44;;;;;;;4.63;1.88;;;20.20;99.90;;;;;;5058547;28;20207;-55
2021/08/07 08:04:10;;;;;;;5.65;1.83;;;20.30;99.90;;;;;;5055919;28;20469;-55
2021/08/07 08:06:35;;;;;;;2.75;1.70;;;20.50;99.90;;;;;;5065419;28;20082;-50
2021/08/07 08:09:01;;;;;;;4.03;1.63;;;20.60;99.90;;;;;;5069277;28;20029;-48
2021/08/07 08:11:27;;;;;;;4.65;1.70;;;20.80;99.90;;;;;;5066844;28;20026;-47
2021/08/07 08:13:52;;;;;;;2.05;1.65;;;20.70;99.90;;;;;;5067669;28;20043;-47
2021/08/07 08:16:18;;;;;;;4.10;1.40;;;20.80;99.90;;;;;;5067999;28;20021;-49
2021/08/07 08:18:44;;;;;;;2.92;1.63;;;20.80;99.90;;;;;;5066145;28;20024;-48
2021/08/07 08:21:09;;;;;;;3.83;1.70;;;21.00;99.90;;;;;;5064302;28;20131;-48
2021/08/07 08:23:35;;;;;;;8.43;2.00;;;21.00;99.90;;;;;;5070911;28;20029;-47
2021/08/07 08:26:00;;;;;;;3.65;1.92;;;21.20;99.90;;;;;;5071424;28;20301;-48
2021/08/07 08:28:26;;;;;;;2.08;1.50;;;21.50;99.90;;;;;;5071453;28;20021;-48
2021/08/07 08:30:51;;;;;;;3.17;1.40;;;21.70;99.90;;;;;;5071645;28;20374;-48
2021/08/07 08:33:17;;;;;;;4.85;1.60;;;21.90;99.90;;;;;;5054520;28;20106;-48
2021/08/07 08:35:43;;;;;;;2.72;1.50;;;21.70;99.90;;;;;;5049795;28;20107;-48
2021/08/07 08:38:09;;;;;;;4.75;2.08;;;21.80;99.90;;;;;;5051114;28;20025;-49
2021/08/07 08:40:35;;;;;;;2.05;1.40;;;21.70;99.90;;;;;;5056406;28;20090;-48
2021/08/07 08:43:00;;;;;;;4.78;1.50;;;21.80;99.90;;;;;;5069797;28;20441;-47
2021/08/07 08:45:26;;;;;;;2.78;1.40;;;21.90;99.90;;;;;;5070482;28;20067;-50
2021/08/07 08:47:52;;;;;;;3.50;1.60;;;22.00;99.90;;;;;;5071192;28;20044;-48
2021/08/07 08:50:22;;;;;;;2.08;1.38;;;22.70;99.90;;;;;;5070779;28;20087;-47
2021/08/07 08:52:49;;;;;;;3.50;1.33;;;23.90;99.90;;;;;;5071112;28;20017;-49
2021/08/07 08:55:15;;;;;;;2.55;1.40;;;25.60;98.80;;;;;;5070265;28;20024;-47
2021/08/07 08:57:41;;;;;;;1.65;1.08;;;26.70;93.20;;;;;;5071072;28;20017;-48
2021/08/07 09:00:09;;;;;;;3.35;1.02;;;27.20;90.90;;;;;;5071139;28;20021;-47
2021/08/07 09:02:35;;;;;;;1.15;0.88;;;27.00;85.20;;;;;;5069505;28;20140;-53
2021/08/07 09:05:00;;;;;;;3.30;0.90;;;26.70;87.60;;;;;;5070095;28;20537;-50
2021/08/07 09:07:26;;;;;;;4.00;1.00;;;27.50;88.60;;;;;;5070345;28;20032;-48
2021/08/07 09:09:56;;;;;;;1.58;0.88;;;28.00;83.00;;;;;;5070624;28;20043;-48
2021/08/07 09:12:48;;;;;;;2.17;1.10;;;28.50;80.00;;;;;;5069034;28;20056;-48
2021/08/07 09:15:33;;;;;;;1.50;0.98;;;29.20;77.70;;;;;;5055083;28;20512;-48
2021/08/07 09:18:11;;;;;;;5.32;1.00;;;29.50;75.50;;;;;;5049132;28;20276;-47
2021/08/07 09:20:38;;;;;;;2.75;1.20;;;28.70;73.90;;;;;;5049030;28;20553;-47
2021/08/07 09:23:04;;;;;;;1.67;1.10;;;27.60;76.80;;;;;;5048912;28;20078;-48
2021/08/07 09:25:45;;;;;;;2.58;0.73;;;27.60;76.10;;;;;;5048549;28;20271;-47
2021/08/07 09:28:11;;;;;;;0.90;0.80;;;28.30;76.90;;;;;;5048797;28;20021;-47
2021/08/07 09:30:42;;;;;;;7.13;1.10;;;29.60;74.70;;;;;;5047770;28;20039;-47
2021/08/07 09:33:19;;;;;;;1.52;1.10;;;29.80;69.70;;;;;;5048988;28;20482;-48
2021/08/07 09:35:45;;;;;;;4.90;1.40;;;30.30;67.40;;;;;;5050273;28;20049;-48
2021/08/07 09:38:11;;;;;;;4.72;1.30;;;30.30;65.80;;;;;;5050068;28;20033;-48
2021/08/07 09:40:41;;;;;;;1.23;0.80;;;29.40;66.50;;;;;;5050317;28;20024;-47
2021/08/07 09:43:08;;;;;;;1.75;0.95;;;29.40;67.30;;;;;;5050103;28;20017;-48
2021/08/07 09:45:33;;;;;;;1.73;0.80;;;30.20;67.30;;;;;;5049719;28;20120;-48
2021/08/07 09:48:03;;;;;;;1.52;0.90;;;30.20;66.60;;;;;;5050083;28;20104;-48
2021/08/07 09:50:31;;;;;;;1.42;0.63;;;31.20;67.00;;;;;;5049948;28;20029;-49
2021/08/07 09:52:57;;;;;;;1.80;0.73;;;31.80;64.90;;;;;;5050191;28;20458;-48
2021/08/07 09:55:23;;;;;;;0.80;0.80;;;30.80;62.10;;;;;;5049374;28;20485;-51
2021/08/07 09:58:05;;;;;;;1.90;0.80;;;30.50;64.50;;;;;;5049850;28;20096;-47
2021/08/07 10:00:39;;;;;;;1.52;0.70;;;29.80;65.90;;;;;;5049969;28;20094;-47
2021/08/07 10:03:19;;;;;;;1.85;1.23;;;29.00;67.90;;;;;;5050089;28;20110;-48
2021/08/07 10:05:47;;;;;;;1.92;1.73;;;29.10;68.90;;;;;;5050125;28;20021;-49
2021/08/07 10:08:13;;;;;;;1.00;0.80;;;29.80;68.40;;;;;;5049970;28;20040;-48
2021/08/07 10:10:39;;;;;;;1.33;0.88;;;31.10;62.60;;;;;;5049772;28;20021;-50
2021/08/07 10:13:06;;;;;;;2.70;0.80;;;32.20;60.70;;;;;;5049703;28;20402;-49
2021/08/07 10:15:33;;;;;;;3.70;0.80;;;32.00;58.00;;;;;;5048088;28;20036;-49
2021/08/07 10:18:00;;;;;;;3.30;0.90;;;33.00;59.00;;;;;;5049733;28;20487;-50
2021/08/07 10:20:25;;;;;;;1.10;1.00;;;33.60;59.30;;;;;;5049792;28;20103;-51
2021/08/07 10:22:52;;;;;;;2.92;0.80;;;33.80;55.90;;;;;;5049575;28;20100;-50
2021/08/07 10:25:18;;;;;;;0.98;0.70;;;34.70;54.90;;;;;;5047479;28;20494;-50
2021/08/07 10:27:44;;;;;;;1.65;0.90;;;33.60;53.80;;;;;;5049434;28;20035;-49
2021/08/07 10:30:13;;;;;;;2.85;0.93;;;32.00;55.10;;;;;;5049384;28;20021;-49
2021/08/07 10:32:44;;;;;;;1.00;0.82;;;31.20;58.40;;;;;;5049427;28;20486;-48
2021/08/07 10:35:11;;;;;;;1.70;0.68;;;31.50;57.90;;;;;;5048579;28;20029;-48
2021/08/07 10:37:38;;;;;;;1.15;0.70;;;30.90;55.70;;;;;;5049329;28;20024;-50
2021/08/07 10:40:05;;;;;;;1.90;1.42;;;31.10;54.90;;;;;;5049241;28;20037;-47
2021/08/07 10:42:33;;;;;;;2.53;0.88;;;31.70;55.90;;;;;;5048584;28;20017;-49
2021/08/07 10:45:00;;;;;;;1.42;0.70;;;32.00;57.10;;;;;;5048290;28;20078;-50
2021/08/07 10:47:43;;;;;;;2.00;0.82;;;32.60;55.50;;;;;;5049097;28;20086;-47
2021/08/07 10:50:29;;;;;;;1.27;0.82;;;31.10;54.60;;;;;;5049081;28;20021;-47
2021/08/07 10:53:00;;;;;;;1.08;0.80;;;31.20;55.50;;;;;;5048973;28;20433;-49
2021/08/07 10:55:50;;;;;;;1.75;0.90;;;31.30;53.90;;;;;;5048014;28;20045;-47
2021/08/07 10:58:31;;;;;;;;;;;30.30;54.90;;;;;;5049095;28;20111;-48
2021/08/07 11:01:25;;;;;;;1.52;0.90;;;30.40;57.30;;;;;;5048674;28;20139;-50
2021/08/07 11:04:12;;;;;;;2.80;0.90;;;30.00;55.00;;;;;;5047922;28;20478;-48
2021/08/07 11:06:37;;;;;;;2.25;0.70;;;28.60;57.00;;;;;;5048249;28;20091;-49
2021/08/07 11:09:20;;;;;;;2.00;1.10;;;29.40;59.90;;;;;;5048576;28;20545;-48
2021/08/07 11:12:10;;;;;;;1.38;1.00;;;30.20;57.60;;;;;;5048502;28;20033;-49
2021/08/07 11:14:35;;;;;;;1.23;1.08;;;30.70;55.00;;;;;;5047881;28;20044;-47
2021/08/07 11:17:04;;;;;;;2.63;0.80;;;29.60;57.60;;;;;;5048732;28;20029;-48
2021/08/07 11:20:06;;;;;;;1.33;1.00;;;28.90;59.10;;;;;;5048349;28;20544;-48
2021/08/07 11:22:32;;;;;;;1.20;0.93;;;28.40;61.00;;;;;;5048822;28;20268;-47
2021/08/07 11:25:00;;;;;;;2.63;1.02;;;28.30;61.80;;;;;;5048050;28;20021;-47
2021/08/07 11:30:24;;;;;;;2.30;1.02;;;28.60;59.50;;;;;;5048514;28;20025;-47
2021/08/07 11:35:37;;;;;;;1.08;0.70;;;27.90;58.80;;;;;;5047995;28;20033;-47
2021/08/07 11:38:06;;;;;;;3.45;1.30;;;28.00;59.40;;;;;;5048211;28;20054;-48
2021/08/07 11:40:38;;;;;;;1.98;0.90;;;27.80;60.00;;;;;;5048243;28;20025;-49
2021/08/07 11:43:05;;;;;;;3.00;1.05;;;27.70;60.60;;;;;;5046878;28;20112;-46
2021/08/07 11:45:31;;;;;;;1.05;0.90;;;27.60;60.30;;;;;;5047453;28;20029;-46
2021/08/07 11:47:57;;;;;;;1.75;1.23;;;26.60;62.50;;;;;;5048019;28;20124;-47
2021/08/07 11:50:24;;;;;;;4.00;1.20;;;26.20;65.10;;;;;;5048017;28;20083;-46
2021/08/07 11:52:50;;;;;;;3.17;0.90;;;25.80;65.20;;;;;;5049503;28;20037;-46
2021/08/07 11:55:17;;;;;;;2.63;1.10;;;25.40;65.30;;;;;;5051466;28;20076;-47
2021/08/07 11:57:42;;;;;;;1.83;1.08;;;25.30;66.90;;;;;;5051890;28;20542;-46
2021/08/07 12:00:25;;;;;;;1.80;0.90;;;25.10;67.70;;;;;;5051971;28;20121;-48
2021/08/07 12:02:56;;;;;;;3.65;1.67;;;25.30;68.70;;;;;;5052076;28;20567;-46
2021/08/07 12:05:22;;;;;;;3.33;1.30;;;25.80;70.20;;;;;;5051624;28;20403;-46
2021/08/07 12:08:08;;;;;;;1.70;1.20;;;26.00;66.90;;;;;;5051876;28;20017;-46
2021/08/07 12:10:35;;;;;;;1.30;0.90;;;25.90;65.50;;;;;;5051955;28;20032;-46
2021/08/07 12:13:01;;;;;;;2.08;1.20;;;25.80;67.00;;;;;;5051821;28;20052;-46
2021/08/07 12:15:27;;;;;;;2.60;1.35;;;25.40;67.20;;;;;;5049751;28;20061;-45
2021/08/07 12:17:55;;;;;;;4.28;0.90;;;25.70;67.80;;;;;;5051971;28;20456;-48
2021/08/07 12:20:21;;;;;;;2.17;1.33;;;26.10;66.90;;;;;;5051926;28;20210;-45
2021/08/07 12:23:01;;;;;;;2.10;1.10;;;26.20;65.10;;;;;;5051952;28;20029;-46
2021/08/07 12:25:28;;;;;;;1.73;1.05;;;26.10;67.00;;;;;;5051270;28;20013;-49
2021/08/07 12:28:29;;;;;;;2.28;1.23;;;25.70;67.00;;;;;;5051614;28;20033;-48
2021/08/07 12:31:02;;;;;;;2.47;1.08;;;25.30;67.70;;;;;;5009058;28;20036;-47
2021/08/07 12:33:34;;;;;;;4.78;1.13;;;25.10;67.90;;;;;;5040421;28;20045;-46
2021/08/07 12:36:13;;;;;;;4.97;1.35;;;24.50;69.60;;;;;;5051333;28;20029;-46
2021/08/07 12:38:44;;;;;;;6.35;1.45;;;24.10;70.20;;;;;;5051349;28;20039;-48
2021/08/07 12:41:11;;;;;;;2.00;1.17;;;24.10;71.30;;;;;;5050004;28;20025;-48
2021/08/07 12:43:36;;;;;;;4.93;1.27;;;24.30;71.10;;;;;;5050551;28;20017;-46
2021/08/07 12:46:04;;;;;;;1.55;0.88;;;24.40;70.80;;;;;;5051080;28;20017;-48
2021/08/07 12:48:56;;;;;;;8.00;1.10;;;24.70;71.10;;;;;;5051261;28;20035;-46
2021/08/07 12:51:28;;;;;;;3.17;1.30;;;25.20;70.30;;;;;;5051388;28;20491;-47
2021/08/07 12:53:55;;;;;;;1.75;0.90;;;25.40;69.20;;;;;;5050517;28;20116;-49
2021/08/07 12:56:21;;;;;;;3.33;1.25;;;25.30;68.90;;;;;;5051127;28;20025;-47